Главная страница
METAR-TAF:

METAR-TAF

Аэропорты :

Florø, Норвегия

широта: 61-35N, долгота: 005-02E, высота над уровнем моря: 0 м

Текущие метеонаблюдения

Эта сводка был подготовлена 24 минут назад, в 22:50 UTC
Ветер 9 Узел от западно-северо-западный
Температура 5°C
Влажность 70%
Давление 1009 hPa
Видимость 10 км и более

METAR: ENFL 072250Z AUTO 29009KT 9999NDV NCD 05/M00 Q1009

Время: 01:14 (23:14 UTC)

Прогноз

Эта сводка был подготовлена 3 часа и 14 минут назад, в 20:00 UTC
Прогноз действительный с 07-го 21 UTC до 08-го 06 UTC
Ветер 10 Узел от северно-северо-западный
Видимость 10 км и более
небольшая облачность на высоте 3000 фута, мощно-кучевые.
изменения
С 07-го 22 UTC до 07-го 24 UTC
Ветер 5 Узел переменных направлений
временами
С 08-го 00 UTC до 08-го 06 UTC
Видимость: 3000 м
Рассеянная облачность на высоте 2000 фута, Кучево-дождевые.
ливневые дожди, снег

TAF: ENFL 072000Z 0721/0806 33010KT 9999 FEW030TCU BECMG 0722/0724 VRB05KT TEMPO 0800/0806 3000 SHRASN BKN020CB

Метеонаблюдения и прогнозы для более 4000 аэропортов (сводки METAR и TAF).

Имеющиеся станции представлены на карте желтыми и красными точками.

Чтобы увидеть название станции, наведите на нее мышь.

Затем щелкните, чтобы увидеть метеонаблюдения и метеопрогнозы.

Управление картой: чтобы увеличить масштаб, щелкните зеленые кнопки с черным крестиком; чтобы уменьшить масштаб, щелкните зеленую кнопку с тире; для просмотра соседних карт щелкайте зеленые стрелки.


METAR-TAF: